Terminal Aerodrome Forecast
Issued by NWS Jacksonville, FL

Home | Current Version | Previous Version | Text Only | Print | Product List | Glossary On
Versions: 1 2 3 4 5 6 7 8 9 10 11 12 13 14 15 16 17 18 19 20 21 22 23 24 25 26 27 28 29 30 31
347
FTUS42 KJAX 231240 AAA
TAFGNV
TAF AMD
KGNV 231240Z 2313/2412 22005KT P6SM SHRA BKN025 BKN100
     FM231400 23006KT P6SM SHRA VCTS BKN035CB OVC080
      TEMPO 2315/2319 VRB15G25KT 4SM -TSRA
     FM232200 21005KT P6SM VCSH SCT060 BKN250
     FM240200 VRB03KT P6SM SCT250=

USA.gov is the U.S. government's official web portal to all federal, state and local government web resources and services.